createdAt,value
2018-12-06T00:12:01.559Z,93.44
2018-12-06T00:27:01.618Z,93.75
2018-12-06T00:42:01.652Z,93.80
2018-12-06T00:57:01.650Z,94.06
2018-12-06T01:12:01.650Z,94.23
2018-12-06T01:27:01.667Z,94.12
2018-12-06T01:42:01.524Z,93.67
2018-12-06T01:57:01.579Z,93.72
2018-12-06T02:02:01.563Z,93.64
2018-12-06T02:17:01.621Z,93.63
2018-12-06T02:32:01.433Z,93.83
2018-12-06T02:47:01.547Z,94.30
2018-12-06T03:02:01.529Z,94.71
2018-12-06T03:12:01.597Z,95.19
2018-12-06T03:27:01.679Z,95.41
2018-12-06T03:32:01.714Z,96.82
2018-12-06T03:47:01.562Z,98.15
2018-12-06T04:02:01.594Z,100.00
2018-12-06T04:17:01.616Z,100.00
2018-12-06T04:33:01.521Z,100.00
2018-12-06T04:48:02.607Z,100.00
2018-12-06T05:03:01.673Z,100.00
2018-12-06T05:08:03.437Z,100.00
2018-12-06T05:23:01.623Z,100.00
2018-12-06T05:39:01.619Z,100.00
2018-12-06T05:54:01.605Z,100.00
2018-12-06T06:04:01.652Z,100.00
2018-12-06T06:19:01.635Z,100.00
2018-12-06T06:34:01.497Z,100.00
2018-12-06T06:49:01.529Z,100.00
2018-12-06T06:54:01.435Z,100.00
2018-12-06T07:09:01.450Z,100.00
2018-12-06T07:19:01.507Z,100.00
2018-12-06T07:34:01.583Z,100.00
2018-12-06T07:39:01.522Z,100.00
2018-12-06T07:54:01.430Z,100.00
2018-12-06T07:59:01.537Z,100.00
2018-12-06T08:14:01.453Z,100.00
2018-12-06T08:19:01.463Z,100.00
2018-12-06T08:34:06.957Z,100.00
2018-12-06T08:49:03.629Z,100.00
2018-12-06T08:54:01.521Z,100.00
2018-12-06T09:04:01.522Z,100.00
2018-12-06T09:19:01.534Z,100.00
2018-12-06T09:29:01.476Z,100.00
2018-12-06T09:35:01.585Z,100.00
2018-12-06T09:45:01.543Z,100.00
2018-12-06T10:00:01.502Z,100.00
2018-12-06T10:15:01.566Z,100.00
2018-12-06T10:25:06.518Z,100.00
2018-12-06T10:30:06.461Z,100.00
2018-12-06T10:45:06.589Z,100.00
2018-12-06T10:55:06.468Z,100.00
2018-12-06T11:00:07.034Z,100.00
2018-12-06T11:15:01.457Z,100.00
2018-12-06T11:30:01.488Z,100.00
2018-12-06T11:40:01.476Z,100.00
2018-12-06T11:45:01.544Z,100.00
2018-12-06T12:00:01.992Z,100.00
2018-12-06T12:05:01.727Z,100.00
2018-12-06T12:15:01.661Z,100.00
2018-12-06T12:20:01.643Z,100.00
2018-12-06T12:30:01.684Z,100.00
2018-12-06T12:35:01.741Z,100.00
2018-12-06T12:45:01.738Z,100.00
2018-12-06T12:51:01.666Z,100.00
2018-12-06T13:06:01.658Z,100.00
2018-12-06T13:21:01.678Z,100.00
2018-12-06T13:26:01.614Z,100.00
2018-12-06T13:41:01.672Z,100.00
2018-12-06T13:51:01.592Z,100.00
2018-12-06T14:01:03.730Z,100.00
2018-12-06T14:06:01.578Z,100.00
2018-12-06T14:16:01.693Z,100.00
2018-12-06T14:31:01.667Z,100.00
2018-12-06T14:41:02.089Z,100.00
2018-12-06T14:51:01.650Z,100.00
2018-12-06T15:01:01.686Z,100.00
2018-12-06T15:11:01.628Z,100.00
2018-12-06T15:16:01.638Z,100.00
2018-12-06T15:21:01.902Z,100.00
2018-12-06T15:26:01.700Z,100.00
2018-12-06T15:31:01.731Z,100.00
2018-12-06T15:41:01.636Z,100.00
2018-12-06T15:56:01.722Z,100.00
2018-12-06T16:11:01.498Z,100.00
2018-12-06T16:26:01.657Z,100.00
2018-12-06T16:41:01.759Z,100.00
2018-12-06T16:56:01.638Z,100.00
2018-12-06T17:06:01.612Z,100.00
2018-12-06T17:21:01.595Z,100.00
2018-12-06T17:36:01.659Z,100.00
2018-12-06T17:51:01.669Z,100.00
2018-12-06T18:06:01.702Z,100.00
2018-12-06T18:21:01.569Z,100.00
2018-12-06T18:31:01.612Z,100.00
2018-12-06T18:46:01.587Z,100.00
2018-12-06T18:51:01.699Z,100.00
2018-12-06T19:01:01.671Z,100.00
2018-12-06T19:16:01.662Z,100.00
2018-12-06T19:31:01.633Z,100.00
2018-12-06T19:46:01.847Z,100.00
2018-12-06T19:56:01.653Z,100.00
2018-12-06T20:11:01.581Z,100.00
2018-12-06T20:26:01.793Z,100.00
2018-12-06T20:41:01.531Z,100.00
2018-12-06T20:56:01.808Z,100.00
2018-12-06T21:11:01.615Z,100.00
2018-12-06T21:26:02.685Z,100.00
2018-12-06T21:41:01.685Z,100.00
2018-12-06T21:56:01.593Z,100.00
2018-12-06T22:11:01.797Z,100.00
2018-12-06T22:26:01.610Z,100.00
2018-12-06T22:41:01.734Z,100.00
2018-12-06T22:51:01.704Z,100.00
2018-12-06T23:06:01.901Z,100.00
2018-12-06T23:21:01.577Z,100.00
2018-12-06T23:26:01.496Z,100.00
2018-12-06T23:41:01.534Z,100.00
2018-12-06T23:56:01.587Z,100.00
